sensor_id;sensor_type;location;lat;lon;timestamp;pressure;altitude;pressure_sealevel;temperature;humidity
8641;BME280;4358;42.100;25.222;2023-02-12T00:00:15;101163.72;;;-2.81;94.71
8641;BME280;4358;42.100;25.222;2023-02-12T00:02:44;101160.25;;;-2.82;96.10
8641;BME280;4358;42.100;25.222;2023-02-12T00:05:10;101159.34;;;-2.87;95.55
8641;BME280;4358;42.100;25.222;2023-02-12T00:07:37;101149.06;;;-2.78;95.49
8641;BME280;4358;42.100;25.222;2023-02-12T00:10:05;101173.38;;;-2.65;94.80
8641;BME280;4358;42.100;25.222;2023-02-12T00:12:32;101169.91;;;-2.66;95.90
8641;BME280;4358;42.100;25.222;2023-02-12T00:14:59;101164.72;;;-2.66;96.73
8641;BME280;4358;42.100;25.222;2023-02-12T00:17:25;101166.41;;;-2.71;97.56
8641;BME280;4358;42.100;25.222;2023-02-12T00:19:53;101163.75;;;-2.77;98.01
8641;BME280;4358;42.100;25.222;2023-02-12T00:22:20;101162.03;;;-2.78;98.25
8641;BME280;4358;42.100;25.222;2023-02-12T00:24:47;101162.91;;;-2.76;98.83
8641;BME280;4358;42.100;25.222;2023-02-12T00:27:14;101162.06;;;-2.75;99.30
8641;BME280;4358;42.100;25.222;2023-02-12T00:29:41;101158.53;;;-2.83;99.39
8641;BME280;4358;42.100;25.222;2023-02-12T00:32:08;101155.94;;;-2.83;99.24
8641;BME280;4358;42.100;25.222;2023-02-12T00:34:34;101146.44;;;-2.76;98.90
8641;BME280;4358;42.100;25.222;2023-02-12T00:37:03;101150.03;;;-2.59;98.74
8641;BME280;4358;42.100;25.222;2023-02-12T00:39:30;101145.78;;;-2.46;98.11
8641;BME280;4358;42.100;25.222;2023-02-12T00:41:57;101144.13;;;-2.32;96.93
8641;BME280;4358;42.100;25.222;2023-02-12T00:44:23;101146.78;;;-2.20;95.61
8641;BME280;4358;42.100;25.222;2023-02-12T00:46:50;101153.63;;;-2.37;95.48
8641;BME280;4358;42.100;25.222;2023-02-12T00:49:17;101147.53;;;-2.42;95.83
8641;BME280;4358;42.100;25.222;2023-02-12T00:51:44;101133.69;;;-2.38;95.21
8641;BME280;4358;42.100;25.222;2023-02-12T00:54:13;101130.28;;;-2.22;95.05
8641;BME280;4358;42.100;25.222;2023-02-12T00:56:40;101132.03;;;-2.18;94.80
8641;BME280;4358;42.100;25.222;2023-02-12T00:59:07;101133.81;;;-2.08;94.50
8641;BME280;4358;42.100;25.222;2023-02-12T01:01:34;101135.53;;;-2.13;93.46
8641;BME280;4358;42.100;25.222;2023-02-12T01:04:00;101099.94;;;-2.25;93.89
8641;BME280;4358;42.100;25.222;2023-02-12T01:06:27;101117.38;;;-1.96;93.61
8641;BME280;4358;42.100;25.222;2023-02-12T01:08:54;101099.16;;;-1.98;92.76
8641;BME280;4358;42.100;25.222;2023-02-12T01:11:22;101112.25;;;-1.78;92.63
8641;BME280;4358;42.100;25.222;2023-02-12T01:13:49;101114.88;;;-1.67;91.09
8641;BME280;4358;42.100;25.222;2023-02-12T01:16:18;101115.75;;;-1.58;90.77
8641;BME280;4358;42.100;25.222;2023-02-12T01:18:45;101110.53;;;-1.53;91.02
8641;BME280;4358;42.100;25.222;2023-02-12T01:21:14;101104.47;;;-1.48;91.02
8641;BME280;4358;42.100;25.222;2023-02-12T01:23:42;101099.28;;;-1.52;90.98
8641;BME280;4358;42.100;25.222;2023-02-12T01:26:09;101113.13;;;-1.59;89.55
8641;BME280;4358;42.100;25.222;2023-02-12T01:28:38;101105.31;;;-1.70;90.04
8641;BME280;4358;42.100;25.222;2023-02-12T01:31:10;101093.16;;;-1.68;89.42
8641;BME280;4358;42.100;25.222;2023-02-12T01:33:38;101087.06;;;-1.72;89.73
8641;BME280;4358;42.100;25.222;2023-02-12T01:36:05;101093.16;;;-1.68;90.05
8641;BME280;4358;42.100;25.222;2023-02-12T01:38:32;101085.38;;;-1.63;90.60
8641;BME280;4358;42.100;25.222;2023-02-12T01:41:03;101087.09;;;-1.75;90.43
8641;BME280;4358;42.100;25.222;2023-02-12T01:43:30;101076.69;;;-1.68;91.01
8641;BME280;4358;42.100;25.222;2023-02-12T01:46:00;101082.75;;;-1.65;91.12
8641;BME280;4358;42.100;25.222;2023-02-12T01:48:29;101074.97;;;-1.57;90.34
8641;BME280;4358;42.100;25.222;2023-02-12T01:50:58;101075.78;;;-1.72;90.29
8641;BME280;4358;42.100;25.222;2023-02-12T01:53:29;101073.16;;;-1.83;89.93
8641;BME280;4358;42.100;25.222;2023-02-12T01:55:58;101069.69;;;-1.91;91.60
8641;BME280;4358;42.100;25.222;2023-02-12T01:58:30;101078.34;;;-1.96;93.24
8641;BME280;4358;42.100;25.222;2023-02-12T02:01:01;101086.97;;;-2.16;94.88
8641;BME280;4358;42.100;25.222;2023-02-12T02:03:29;101087.00;;;-2.05;95.23
8641;BME280;4358;42.100;25.222;2023-02-12T02:06:01;101084.41;;;-1.99;95.21
8641;BME280;4358;42.100;25.222;2023-02-12T02:08:29;101075.75;;;-2.05;95.34
8641;BME280;4358;42.100;25.222;2023-02-12T02:10:56;101075.69;;;-2.18;96.60
8641;BME280;4358;42.100;25.222;2023-02-12T02:13:23;101084.31;;;-2.31;97.98
8641;BME280;4358;42.100;25.222;2023-02-12T02:16:20;101083.34;;;-2.49;100.00
8641;BME280;4358;42.100;25.222;2023-02-12T02:18:52;101097.31;;;-2.32;100.00
8641;BME280;4358;42.100;25.222;2023-02-12T02:21:44;101092.97;;;-2.33;99.71
8641;BME280;4358;42.100;25.222;2023-02-12T02:24:36;101099.09;;;-2.25;99.10
8641;BME280;4358;42.100;25.222;2023-02-12T02:27:14;101090.41;;;-2.24;99.20
8641;BME280;4358;42.100;25.222;2023-02-12T02:32:43;101087.63;;;-2.65;100.00
8641;BME280;4358;42.100;25.222;2023-02-12T02:35:19;101104.06;;;-2.68;100.00
8641;BME280;4358;42.100;25.222;2023-02-12T02:37:58;101097.22;;;-2.49;100.00
8641;BME280;4358;42.100;25.222;2023-02-12T02:40:31;101095.53;;;-2.42;99.08
8641;BME280;4358;42.100;25.222;2023-02-12T02:43:06;101091.25;;;-2.33;98.27
8641;BME280;4358;42.100;25.222;2023-02-12T02:45:38;101107.78;;;-2.20;96.39
8641;BME280;4358;42.100;25.222;2023-02-12T02:48:12;101100.81;;;-2.27;97.03
8641;BME280;4358;42.100;25.222;2023-02-12T02:50:44;101095.59;;;-2.32;97.62
8641;BME280;4358;42.100;25.222;2023-02-12T02:53:16;101092.13;;;-2.23;97.89
8641;BME280;4358;42.100;25.222;2023-02-12T02:55:48;101095.66;;;-2.15;97.03
8641;BME280;4358;42.100;25.222;2023-02-12T02:58:19;101097.41;;;-2.11;96.92
8641;BME280;4358;42.100;25.222;2023-02-12T03:00:50;101092.19;;;-2.11;96.74
8641;BME280;4358;42.100;25.222;2023-02-12T03:03:24;101085.25;;;-2.09;96.59
8641;BME280;4358;42.100;25.222;2023-02-12T03:05:55;101083.53;;;-1.98;95.81
8641;BME280;4358;42.100;25.222;2023-02-12T03:08:27;101074.00;;;-2.09;95.29
8641;BME280;4358;42.100;25.222;2023-02-12T03:11:01;101088.75;;;-2.01;95.40
8641;BME280;4358;42.100;25.222;2023-02-12T03:13:33;101090.50;;;-1.97;95.74
8641;BME280;4358;42.100;25.222;2023-02-12T03:16:06;101094.84;;;-1.87;94.38
8641;BME280;4358;42.100;25.222;2023-02-12T03:18:41;101096.59;;;-1.89;95.47
8641;BME280;4358;42.100;25.222;2023-02-12T03:21:11;101092.22;;;-2.05;97.32
8641;BME280;4358;42.100;25.222;2023-02-12T03:23:43;101092.25;;;-1.96;97.65
8641;BME280;4358;42.100;25.222;2023-02-12T03:26:17;101087.03;;;-1.87;96.26
8641;BME280;4358;42.100;25.222;2023-02-12T03:28:46;101086.19;;;-1.83;95.86
8641;BME280;4358;42.100;25.222;2023-02-12T03:31:19;101087.06;;;-1.76;95.87
8641;BME280;4358;42.100;25.222;2023-02-12T03:33:59;101088.81;;;-1.74;96.14
8641;BME280;4358;42.100;25.222;2023-02-12T03:36:35;101081.00;;;-1.75;96.46
8641;BME280;4358;42.100;25.222;2023-02-12T03:39:10;101067.97;;;-1.92;96.78
8641;BME280;4358;42.100;25.222;2023-02-12T03:41:42;101073.19;;;-1.86;97.25
8641;BME280;4358;42.100;25.222;2023-02-12T03:44:19;101078.38;;;-1.86;98.15
8641;BME280;4358;42.100;25.222;2023-02-12T03:46:57;101080.13;;;-1.82;97.63
8641;BME280;4358;42.100;25.222;2023-02-12T03:49:30;101081.00;;;-1.75;96.86
8641;BME280;4358;42.100;25.222;2023-02-12T03:51:59;101072.34;;;-1.79;96.86
8641;BME280;4358;42.100;25.222;2023-02-12T03:54:26;101073.19;;;-1.71;96.21
8641;BME280;4358;42.100;25.222;2023-02-12T03:56:56;101069.75;;;-1.69;95.88
8641;BME280;4358;42.100;25.222;2023-02-12T03:59:25;101066.25;;;-1.81;96.18
8641;BME280;4358;42.100;25.222;2023-02-12T04:01:53;101064.53;;;-1.79;97.43
8641;BME280;4358;42.100;25.222;2023-02-12T04:04:21;101067.97;;;-1.83;97.33
8641;BME280;4358;42.100;25.222;2023-02-12T04:06:51;101071.47;;;-1.76;95.37
8641;BME280;4358;42.100;25.222;2023-02-12T04:09:20;101072.25;;;-2.09;95.40
8641;BME280;4358;42.100;25.222;2023-02-12T04:11:57;101075.72;;;-2.02;96.95
8641;BME280;4358;42.100;25.222;2023-02-12T04:14:33;101062.72;;;-2.10;96.93
8641;BME280;4358;42.100;25.222;2023-02-12T04:17:05;101064.44;;;-2.12;96.23
8641;BME280;4358;42.100;25.222;2023-02-12T04:19:39;101054.91;;;-2.10;96.42
8641;BME280;4358;42.100;25.222;2023-02-12T04:22:17;101054.94;;;-1.93;96.55
8641;BME280;4358;42.100;25.222;2023-02-12T04:24:54;101058.44;;;-1.85;94.75
8641;BME280;4358;42.100;25.222;2023-02-12T04:27:29;101058.44;;;-1.78;95.34
8641;BME280;4358;42.100;25.222;2023-02-12T04:30:03;101056.72;;;-1.71;95.60
8641;BME280;4358;42.100;25.222;2023-02-12T04:32:36;101063.66;;;-1.65;95.60
8641;BME280;4358;42.100;25.222;2023-02-12T04:35:08;101068.00;;;-1.61;96.08
8641;BME280;4358;42.100;25.222;2023-02-12T04:37:42;101069.75;;;-1.59;96.43
8641;BME280;4358;42.100;25.222;2023-02-12T04:40:12;101059.31;;;-1.66;95.19
8641;BME280;4358;42.100;25.222;2023-02-12T04:42:41;101078.38;;;-1.77;95.90
8641;BME280;4358;42.100;25.222;2023-02-12T04:45:09;101062.75;;;-2.01;97.60
8641;BME280;4358;42.100;25.222;2023-02-12T04:47:37;101081.78;;;-2.20;100.00
8641;BME280;4358;42.100;25.222;2023-02-12T04:50:05;101079.16;;;-2.14;100.00
8641;BME280;4358;42.100;25.222;2023-02-12T04:52:32;101077.50;;;-2.00;100.00
8641;BME280;4358;42.100;25.222;2023-02-12T04:55:00;101080.09;;;-1.91;100.00
8641;BME280;4358;42.100;25.222;2023-02-12T04:57:27;101083.59;;;-1.86;100.00
8641;BME280;4358;42.100;25.222;2023-02-12T04:59:54;101081.88;;;-1.84;99.63
8641;BME280;4358;42.100;25.222;2023-02-12T05:02:21;101088.78;;;-1.99;99.23
8641;BME280;4358;42.100;25.222;2023-02-12T05:04:48;101092.25;;;-1.96;99.60
8641;BME280;4358;42.100;25.222;2023-02-12T05:07:15;101094.84;;;-1.93;99.78
8641;BME280;4358;42.100;25.222;2023-02-12T05:09:42;101094.00;;;-1.84;98.92
8641;BME280;4358;42.100;25.222;2023-02-12T05:12:10;101094.88;;;-1.76;98.37
8641;BME280;4358;42.100;25.222;2023-02-12T05:14:37;101104.38;;;-1.92;99.50
8641;BME280;4358;42.100;25.222;2023-02-12T05:17:03;101111.34;;;-1.91;99.48
8641;BME280;4358;42.100;25.222;2023-02-12T05:19:30;101114.78;;;-1.92;99.82
8641;BME280;4358;42.100;25.222;2023-02-12T05:21:57;101128.66;;;-1.91;100.00
8641;BME280;4358;42.100;25.222;2023-02-12T05:24:24;101124.38;;;-1.79;99.82
8641;BME280;4358;42.100;25.222;2023-02-12T05:26:51;101119.19;;;-1.68;99.95
8641;BME280;4358;42.100;25.222;2023-02-12T05:29:19;101125.25;;;-1.61;99.35
8641;BME280;4358;42.100;25.222;2023-02-12T05:31:46;101132.22;;;-1.51;98.89
8641;BME280;4358;42.100;25.222;2023-02-12T05:34:13;101120.09;;;-1.52;98.08
8641;BME280;4358;42.100;25.222;2023-02-12T05:36:40;101139.19;;;-1.35;97.91
8641;BME280;4358;42.100;25.222;2023-02-12T05:39:06;101143.53;;;-1.30;97.69
8641;BME280;4358;42.100;25.222;2023-02-12T05:41:33;101135.75;;;-1.33;97.01
8641;BME280;4358;42.100;25.222;2023-02-12T05:44:01;101147.00;;;-1.31;97.05
8641;BME280;4358;42.100;25.222;2023-02-12T05:46:29;101147.03;;;-1.27;97.68
8641;BME280;4358;42.100;25.222;2023-02-12T05:48:56;101155.69;;;-1.19;98.61
8641;BME280;4358;42.100;25.222;2023-02-12T05:51:25;101158.31;;;-1.09;97.84
8641;BME280;4358;42.100;25.222;2023-02-12T05:53:55;101144.41;;;-1.08;97.12
8641;BME280;4358;42.100;25.222;2023-02-12T05:56:24;101166.16;;;-0.91;96.46
8641;BME280;4358;42.100;25.222;2023-02-12T05:58:53;101164.41;;;-0.84;95.61
8641;BME280;4358;42.100;25.222;2023-02-12T06:01:23;101163.50;;;-0.72;95.44
8641;BME280;4358;42.100;25.222;2023-02-12T06:03:51;101172.19;;;-0.61;95.01
8641;BME280;4358;42.100;25.222;2023-02-12T06:06:18;101172.19;;;-0.55;93.89
8641;BME280;4358;42.100;25.222;2023-02-12T06:08:46;101166.09;;;-0.53;94.02
8641;BME280;4358;42.100;25.222;2023-02-12T06:11:14;101162.59;;;-0.52;94.83
8641;BME280;4358;42.100;25.222;2023-02-12T06:13:42;101164.34;;;-0.43;95.34
8641;BME280;4358;42.100;25.222;2023-02-12T06:16:16;101160.88;;;-0.44;94.72
8641;BME280;4358;42.100;25.222;2023-02-12T06:18:43;101160.03;;;-0.65;95.40
8641;BME280;4358;42.100;25.222;2023-02-12T06:21:11;101165.25;;;-0.59;96.41
8641;BME280;4358;42.100;25.222;2023-02-12T06:23:39;101163.47;;;-0.51;97.19
8641;BME280;4358;42.100;25.222;2023-02-12T06:26:06;101159.97;;;-0.47;98.04
8641;BME280;4358;42.100;25.222;2023-02-12T06:28:33;101164.31;;;-0.42;97.33
8641;BME280;4358;42.100;25.222;2023-02-12T06:30:59;101169.53;;;-0.38;97.55
8641;BME280;4358;42.100;25.222;2023-02-12T06:33:26;101168.66;;;-0.33;97.61
8641;BME280;4358;42.100;25.222;2023-02-12T06:35:53;101170.38;;;-0.23;97.78
8641;BME280;4358;42.100;25.222;2023-02-12T06:38:21;101173.81;;;-0.15;98.70
8641;BME280;4358;42.100;25.222;2023-02-12T06:40:48;101172.06;;;-0.07;100.00
8641;BME280;4358;42.100;25.222;2023-02-12T06:43:15;101176.38;;;0.02;99.71
8641;BME280;4358;42.100;25.222;2023-02-12T06:45:42;101178.06;;;0.14;99.09
8641;BME280;4358;42.100;25.222;2023-02-12T06:48:09;101178.91;;;0.19;97.53
8641;BME280;4358;42.100;25.222;2023-02-12T06:50:35;101180.63;;;0.23;97.69
8641;BME280;4358;42.100;25.222;2023-02-12T06:53:02;101173.63;;;0.34;95.74
8641;BME280;4358;42.100;25.222;2023-02-12T06:55:30;101170.13;;;0.35;94.79
8641;BME280;4358;42.100;25.222;2023-02-12T06:57:57;101170.13;;;0.36;94.90
8641;BME280;4358;42.100;25.222;2023-02-12T07:00:24;101177.00;;;0.48;94.99
8641;BME280;4358;42.100;25.222;2023-02-12T07:02:52;101183.06;;;0.56;94.57
8641;BME280;4358;42.100;25.222;2023-02-12T07:05:19;101183.94;;;0.57;93.81
8641;BME280;4358;42.100;25.222;2023-02-12T07:07:46;101177.81;;;0.61;93.34
8641;BME280;4358;42.100;25.222;2023-02-12T07:10:13;101193.44;;;0.68;92.43
8641;BME280;4358;42.100;25.222;2023-02-12T07:12:41;101187.25;;;0.80;92.18
8641;BME280;4358;42.100;25.222;2023-02-12T07:15:09;101200.25;;;0.91;91.03
8641;BME280;4358;42.100;25.222;2023-02-12T07:17:36;101190.59;;;1.02;90.43
8641;BME280;4358;42.100;25.222;2023-02-12T07:20:03;101197.53;;;1.09;90.57
8641;BME280;4358;42.100;25.222;2023-02-12T07:22:30;101200.03;;;1.21;90.26
8641;BME280;4358;42.100;25.222;2023-02-12T07:24:57;101190.38;;;1.27;90.98
8641;BME280;4358;42.100;25.222;2023-02-12T07:27:24;101177.47;;;1.08;93.13
8641;BME280;4358;42.100;25.222;2023-02-12T07:29:52;101197.41;;;1.21;94.52
8641;BME280;4358;42.100;25.222;2023-02-12T07:32:19;101197.34;;;1.27;96.22
8641;BME280;4358;42.100;25.222;2023-02-12T07:34:46;101194.66;;;1.41;94.65
8641;BME280;4358;42.100;25.222;2023-02-12T07:37:13;101198.00;;;1.52;93.27
8641;BME280;4358;42.100;25.222;2023-02-12T07:39:40;101205.78;;;1.59;90.09
8641;BME280;4358;42.100;25.222;2023-02-12T07:42:06;101203.16;;;1.61;87.86
8641;BME280;4358;42.100;25.222;2023-02-12T07:44:33;101204.78;;;1.73;84.95
8641;BME280;4358;42.100;25.222;2023-02-12T07:47:02;101202.97;;;1.79;82.62
8641;BME280;4358;42.100;25.222;2023-02-12T07:49:29;101204.69;;;1.80;80.66
8641;BME280;4358;42.100;25.222;2023-02-12T07:51:56;101194.06;;;1.94;79.87
8641;BME280;4358;42.100;25.222;2023-02-12T07:54:23;101195.72;;;2.02;78.16
8641;BME280;4358;42.100;25.222;2023-02-12T07:56:50;101201.69;;;2.15;77.30
8641;BME280;4358;42.100;25.222;2023-02-12T07:59:18;101201.59;;;2.21;76.72
8641;BME280;4358;42.100;25.222;2023-02-12T08:01:47;101204.94;;;2.35;76.63
8641;BME280;4358;42.100;25.222;2023-02-12T08:04:18;101197.69;;;2.52;76.34
8641;BME280;4358;42.100;25.222;2023-02-12T08:06:46;101192.44;;;2.55;75.66
8641;BME280;4358;42.100;25.222;2023-02-12T08:09:15;101204.34;;;2.78;75.32
8641;BME280;4358;42.100;25.222;2023-02-12T08:11:43;101215.47;;;2.93;74.55
8641;BME280;4358;42.100;25.222;2023-02-12T08:14:12;101223.13;;;3.07;73.35
8641;BME280;4358;42.100;25.222;2023-02-12T08:16:41;101217.69;;;3.19;73.59
8641;BME280;4358;42.100;25.222;2023-02-12T08:19:08;101222.03;;;3.22;73.48
8641;BME280;4358;42.100;25.222;2023-02-12T08:21:37;101226.16;;;3.36;72.53
8641;BME280;4358;42.100;25.222;2023-02-12T08:24:04;101233.88;;;3.46;71.51
8641;BME280;4358;42.100;25.222;2023-02-12T08:26:32;101224.22;;;3.48;72.05
8641;BME280;4358;42.100;25.222;2023-02-12T08:29:02;101230.34;;;3.47;73.41
8641;BME280;4358;42.100;25.222;2023-02-12T08:31:30;101232.88;;;3.54;73.80
8641;BME280;4358;42.100;25.222;2023-02-12T08:33:58;101248.47;;;3.62;73.25
8641;BME280;4358;42.100;25.222;2023-02-12T08:36:26;101243.16;;;3.66;74.28
8641;BME280;4358;42.100;25.222;2023-02-12T08:38:56;101260.50;;;3.76;73.37
8641;BME280;4358;42.100;25.222;2023-02-12T08:41:25;101252.47;;;3.82;71.16
8641;BME280;4358;42.100;25.222;2023-02-12T08:43:53;101258.44;;;3.92;69.87
8641;BME280;4358;42.100;25.222;2023-02-12T08:46:22;101254.78;;;4.01;69.06
8641;BME280;4358;42.100;25.222;2023-02-12T08:48:51;101258.94;;;4.12;68.79
8641;BME280;4358;42.100;25.222;2023-02-12T08:51:21;101256.97;;;4.23;68.80
8641;BME280;4358;42.100;25.222;2023-02-12T08:53:51;101257.59;;;4.35;68.34
8641;BME280;4358;42.100;25.222;2023-02-12T08:56:20;101267.31;;;4.33;68.57
8641;BME280;4358;42.100;25.222;2023-02-12T08:58:47;101269.69;;;4.45;67.45
8641;BME280;4358;42.100;25.222;2023-02-12T09:01:17;101276.31;;;4.64;65.48
8641;BME280;4358;42.100;25.222;2023-02-12T09:03:45;101270.72;;;4.79;64.77
8641;BME280;4358;42.100;25.222;2023-02-12T09:06:13;101274.03;;;4.87;64.27
8641;BME280;4358;42.100;25.222;2023-02-12T09:08:41;101275.50;;;5.00;63.64
8641;BME280;4358;42.100;25.222;2023-02-12T09:11:11;101261.31;;;5.07;62.63
8641;BME280;4358;42.100;25.222;2023-02-12T09:13:40;101275.00;;;5.22;61.79
8641;BME280;4358;42.100;25.222;2023-02-12T09:16:07;101284.41;;;5.33;62.15
8641;BME280;4358;42.100;25.222;2023-02-12T09:18:34;101275.28;;;5.46;61.45
8641;BME280;4358;42.100;25.222;2023-02-12T09:21:03;101276.00;;;5.53;61.48
8641;BME280;4358;42.100;25.222;2023-02-12T09:23:31;101281.13;;;5.59;61.91
8641;BME280;4358;42.100;25.222;2023-02-12T09:25:58;101278.41;;;5.62;62.26
8641;BME280;4358;42.100;25.222;2023-02-12T09:28:25;101283.31;;;5.76;61.70
8641;BME280;4358;42.100;25.222;2023-02-12T09:30:53;101282.81;;;5.97;61.06
8641;BME280;4358;42.100;25.222;2023-02-12T09:33:20;101281.66;;;6.07;60.82
8641;BME280;4358;42.100;25.222;2023-02-12T09:35:48;101280.28;;;6.26;60.35
8641;BME280;4358;42.100;25.222;2023-02-12T09:38:15;101283.34;;;6.42;58.69
8641;BME280;4358;42.100;25.222;2023-02-12T09:40:47;101283.91;;;6.53;58.04
8641;BME280;4358;42.100;25.222;2023-02-12T09:43:18;101286.03;;;6.70;56.68
8641;BME280;4358;42.100;25.222;2023-02-12T09:45:57;101282.69;;;6.94;56.35
8641;BME280;4358;42.100;25.222;2023-02-12T09:48:36;101283.81;;;7.15;54.75
8641;BME280;4358;42.100;25.222;2023-02-12T09:51:06;101283.53;;;7.24;54.04
8641;BME280;4358;42.100;25.222;2023-02-12T09:53:37;101283.91;;;7.40;54.10
8641;BME280;4358;42.100;25.222;2023-02-12T09:56:12;101279.28;;;7.46;53.71
8641;BME280;4358;42.100;25.222;2023-02-12T09:58:41;101280.53;;;7.62;53.44
8641;BME280;4358;42.100;25.222;2023-02-12T10:01:14;101274.03;;;7.73;52.70
8641;BME280;4358;42.100;25.222;2023-02-12T10:03:41;101265.25;;;7.71;52.62
8641;BME280;4358;42.100;25.222;2023-02-12T10:06:13;101276.66;;;7.73;53.20
8641;BME280;4358;42.100;25.222;2023-02-12T10:08:57;101274.31;;;7.90;52.32
8641;BME280;4358;42.100;25.222;2023-02-12T10:11:34;101277.06;;;7.87;51.74
8641;BME280;4358;42.100;25.222;2023-02-12T10:14:18;101281.94;;;7.99;50.94
8641;BME280;4358;42.100;25.222;2023-02-12T10:16:54;101278.97;;;8.08;50.94
8641;BME280;4358;42.100;25.222;2023-02-12T10:19:36;101278.53;;;8.20;50.93
8641;BME280;4358;42.100;25.222;2023-02-12T10:22:17;101272.59;;;8.38;51.05
8641;BME280;4358;42.100;25.222;2023-02-12T10:25:00;101266.22;;;8.44;50.73
8641;BME280;4358;42.100;25.222;2023-02-12T10:27:37;101268.47;;;8.55;50.72
8641;BME280;4358;42.100;25.222;2023-02-12T10:30:13;101276.06;;;8.64;50.18
8641;BME280;4358;42.100;25.222;2023-02-12T10:32:45;101264.97;;;8.54;50.05
8641;BME280;4358;42.100;25.222;2023-02-12T10:35:14;101262.31;;;8.54;50.56
8641;BME280;4358;42.100;25.222;2023-02-12T10:37:44;101265.25;;;8.46;50.65
8641;BME280;4358;42.100;25.222;2023-02-12T10:40:17;101264.44;;;8.44;51.39
8641;BME280;4358;42.100;25.222;2023-02-12T10:42:47;101260.31;;;8.61;51.30
8641;BME280;4358;42.100;25.222;2023-02-12T10:45:17;101254.56;;;8.73;51.00
8641;BME280;4358;42.100;25.222;2023-02-12T10:47:48;101241.84;;;8.82;50.66
8641;BME280;4358;42.100;25.222;2023-02-12T10:50:24;101263.28;;;8.98;50.54
8641;BME280;4358;42.100;25.222;2023-02-12T10:52:57;101247.34;;;9.21;50.95
8641;BME280;4358;42.100;25.222;2023-02-12T10:55:29;101255.97;;;9.26;50.47
8641;BME280;4358;42.100;25.222;2023-02-12T10:57:57;101258.31;;;9.12;50.48
8641;BME280;4358;42.100;25.222;2023-02-12T11:00:27;101259.00;;;9.17;50.21
8641;BME280;4358;42.100;25.222;2023-02-12T11:03:17;101260.34;;;9.27;51.14
8641;BME280;4358;42.100;25.222;2023-02-12T11:05:46;101252.16;;;9.33;50.17
8641;BME280;4358;42.100;25.222;2023-02-12T11:08:30;101268.63;;;9.42;49.87
8641;BME280;4358;42.100;25.222;2023-02-12T11:11:03;101273.31;;;9.35;50.09
8641;BME280;4358;42.100;25.222;2023-02-12T11:13:32;101270.81;;;9.09;50.62
8641;BME280;4358;42.100;25.222;2023-02-12T11:15:59;101274.13;;;8.92;51.00
8641;BME280;4358;42.100;25.222;2023-02-12T11:18:30;101276.81;;;8.90;51.43
8641;BME280;4358;42.100;25.222;2023-02-12T11:21:00;101276.84;;;8.67;51.77
8641;BME280;4358;42.100;25.222;2023-02-12T11:23:29;101269.34;;;8.55;52.35
8641;BME280;4358;42.100;25.222;2023-02-12T11:26:00;101270.66;;;8.43;52.52
8641;BME280;4358;42.100;25.222;2023-02-12T11:28:28;101262.03;;;8.38;53.09
8641;BME280;4358;42.100;25.222;2023-02-12T11:30:57;101270.66;;;8.43;52.65
8641;BME280;4358;42.100;25.222;2023-02-12T11:33:27;101267.03;;;8.46;52.56
8641;BME280;4358;42.100;25.222;2023-02-12T11:35:58;101263.53;;;8.45;52.87
8641;BME280;4358;42.100;25.222;2023-02-12T11:38:29;101258.13;;;8.48;53.37
8641;BME280;4358;42.100;25.222;2023-02-12T11:41:00;101257.81;;;8.58;52.89
8641;BME280;4358;42.100;25.222;2023-02-12T11:43:28;101262.28;;;8.56;52.53
8641;BME280;4358;42.100;25.222;2023-02-12T11:45:58;101269.59;;;8.72;52.73
8641;BME280;4358;42.100;25.222;2023-02-12T11:48:29;101264.66;;;8.85;52.29
8641;BME280;4358;42.100;25.222;2023-02-12T11:50:59;101264.66;;;8.85;52.17
8641;BME280;4358;42.100;25.222;2023-02-12T11:53:30;101271.34;;;8.95;50.65
8641;BME280;4358;42.100;25.222;2023-02-12T11:55:59;101260.59;;;9.00;50.77
8641;BME280;4358;42.100;25.222;2023-02-12T11:58:28;101264.03;;;9.02;51.11
8641;BME280;4358;42.100;25.222;2023-02-12T12:01:02;101262.56;;;9.16;50.28
8641;BME280;4358;42.100;25.222;2023-02-12T12:03:37;101263.88;;;9.28;50.66
8641;BME280;4358;42.100;25.222;2023-02-12T12:06:15;101267.31;;;9.52;49.94
8641;BME280;4358;42.100;25.222;2023-02-12T12:08:48;101264.41;;;9.58;49.51
8641;BME280;4358;42.100;25.222;2023-02-12T12:11:19;101271.38;;;9.60;49.12
8641;BME280;4358;42.100;25.222;2023-02-12T12:13:49;101270.09;;;9.49;49.69
8641;BME280;4358;42.100;25.222;2023-02-12T12:16:23;101273.31;;;9.57;49.73
8641;BME280;4358;42.100;25.222;2023-02-12T12:19:15;101279.56;;;9.76;48.66
8641;BME280;4358;42.100;25.222;2023-02-12T12:22:06;101282.63;;;9.87;48.40
8641;BME280;4358;42.100;25.222;2023-02-12T12:24:40;101274.19;;;9.77;47.96
8641;BME280;4358;42.100;25.222;2023-02-12T12:27:16;101283.13;;;9.75;47.78
8641;BME280;4358;42.100;25.222;2023-02-12T12:29:59;101282.41;;;9.71;47.43
8641;BME280;4358;42.100;25.222;2023-02-12T12:32:35;101286.69;;;9.74;47.85
8641;BME280;4358;42.100;25.222;2023-02-12T12:35:06;101288.53;;;9.52;47.91
8641;BME280;4358;42.100;25.222;2023-02-12T12:37:39;101289.25;;;9.55;48.19
8641;BME280;4358;42.100;25.222;2023-02-12T12:40:30;101298.06;;;9.56;47.97
8641;BME280;4358;42.100;25.222;2023-02-12T12:43:12;101298.94;;;9.56;47.04
8641;BME280;4358;42.100;25.222;2023-02-12T12:46:03;101302.47;;;9.57;47.92
8641;BME280;4358;42.100;25.222;2023-02-12T12:48:44;101305.53;;;9.68;46.98
8641;BME280;4358;42.100;25.222;2023-02-12T12:51:23;101302.75;;;9.71;47.23
8641;BME280;4358;42.100;25.222;2023-02-12T12:54:01;101302.34;;;9.80;47.04
8641;BME280;4358;42.100;25.222;2023-02-12T12:56:44;101307.41;;;9.86;46.97
8641;BME280;4358;42.100;25.222;2023-02-12T12:59:50;101311.31;;;9.77;46.44
8641;BME280;4358;42.100;25.222;2023-02-12T13:05:58;101312.84;;;9.83;46.31
8641;BME280;4358;42.100;25.222;2023-02-12T13:08:40;101325.53;;;9.97;45.84
8641;BME280;4358;42.100;25.222;2023-02-12T13:11:19;101329.50;;;10.07;45.81
8641;BME280;4358;42.100;25.222;2023-02-12T13:13:52;101333.78;;;9.89;45.04
8641;BME280;4358;42.100;25.222;2023-02-12T13:16:26;101335.25;;;9.96;43.93
8641;BME280;4358;42.100;25.222;2023-02-12T13:18:59;101333.03;;;10.07;44.71
8641;BME280;4358;42.100;25.222;2023-02-12T13:21:41;101338.38;;;9.86;44.43
8641;BME280;4358;42.100;25.222;2023-02-12T13:24:20;101341.06;;;9.84;44.51
8641;BME280;4358;42.100;25.222;2023-02-12T13:26:53;101346.13;;;9.90;44.76
8641;BME280;4358;42.100;25.222;2023-02-12T13:29:24;101351.84;;;10.01;44.30